sensor_id;sensor_type;location;lat;lon;timestamp;temperature;humidity
41944;DHT22;27636;52.610;13.244;2024-02-26T00:02:48;0.10;99.90
41944;DHT22;27636;52.610;13.244;2024-02-26T00:07:53;0.10;99.90
41944;DHT22;27636;52.610;13.244;2024-02-26T00:12:56;0.20;99.90
41944;DHT22;27636;52.610;13.244;2024-02-26T00:18:00;0.10;99.90
41944;DHT22;27636;52.610;13.244;2024-02-26T00:23:06;0.00;99.90
41944;DHT22;27636;52.610;13.244;2024-02-26T00:28:10;0.00;99.90
41944;DHT22;27636;52.610;13.244;2024-02-26T00:33:16;0.10;99.90
41944;DHT22;27636;52.610;13.244;2024-02-26T00:38:21;0.00;99.90
41944;DHT22;27636;52.610;13.244;2024-02-26T00:43:25;0.10;99.90
41944;DHT22;27636;52.610;13.244;2024-02-26T00:48:28;0.00;99.90
41944;DHT22;27636;52.610;13.244;2024-02-26T00:53:34;0.00;99.90
41944;DHT22;27636;52.610;13.244;2024-02-26T00:58:38;0.00;99.90
41944;DHT22;27636;52.610;13.244;2024-02-26T01:03:41;-0.20;99.90
41944;DHT22;27636;52.610;13.244;2024-02-26T01:08:47;-0.10;99.90
41944;DHT22;27636;52.610;13.244;2024-02-26T01:13:50;-0.10;99.90
41944;DHT22;27636;52.610;13.244;2024-02-26T01:18:59;-0.30;99.90
41944;DHT22;27636;52.610;13.244;2024-02-26T01:24:06;-0.40;99.90
41944;DHT22;27636;52.610;13.244;2024-02-26T01:29:10;-0.50;99.90
41944;DHT22;27636;52.610;13.244;2024-02-26T01:34:14;-0.30;99.90
41944;DHT22;27636;52.610;13.244;2024-02-26T01:39:19;-0.50;99.90
41944;DHT22;27636;52.610;13.244;2024-02-26T01:44:23;-0.30;99.90
41944;DHT22;27636;52.610;13.244;2024-02-26T01:49:27;-0.30;99.90
41944;DHT22;27636;52.610;13.244;2024-02-26T01:54:34;-0.60;99.90
41944;DHT22;27636;52.610;13.244;2024-02-26T01:59:39;-0.40;99.90
41944;DHT22;27636;52.610;13.244;2024-02-26T02:04:43;-0.50;99.90
41944;DHT22;27636;52.610;13.244;2024-02-26T02:17:22;-0.60;99.90
41944;DHT22;27636;52.610;13.244;2024-02-26T02:22:27;-0.70;99.90
41944;DHT22;27636;52.610;13.244;2024-02-26T02:27:31;-0.60;99.90
41944;DHT22;27636;52.610;13.244;2024-02-26T02:32:37;-0.70;99.90
41944;DHT22;27636;52.610;13.244;2024-02-26T02:37:44;-0.60;99.90
41944;DHT22;27636;52.610;13.244;2024-02-26T02:42:48;-0.70;99.90
41944;DHT22;27636;52.610;13.244;2024-02-26T02:47:52;-0.70;99.90
41944;DHT22;27636;52.610;13.244;2024-02-26T02:52:57;-0.60;99.90
41944;DHT22;27636;52.610;13.244;2024-02-26T02:58:01;-0.60;99.90
41944;DHT22;27636;52.610;13.244;2024-02-26T03:03:05;-0.70;99.90
41944;DHT22;27636;52.610;13.244;2024-02-26T03:08:10;-0.60;99.90
41944;DHT22;27636;52.610;13.244;2024-02-26T03:13:14;-0.70;99.90
41944;DHT22;27636;52.610;13.244;2024-02-26T03:18:18;-0.70;99.90
41944;DHT22;27636;52.610;13.244;2024-02-26T03:23:23;-0.70;99.90
41944;DHT22;27636;52.610;13.244;2024-02-26T03:28:26;-0.80;99.90
41944;DHT22;27636;52.610;13.244;2024-02-26T03:33:30;-0.90;99.90
41944;DHT22;27636;52.610;13.244;2024-02-26T03:38:37;-0.80;99.90
41944;DHT22;27636;52.610;13.244;2024-02-26T03:43:41;-0.80;99.90
41944;DHT22;27636;52.610;13.244;2024-02-26T03:48:44;-0.80;99.90
41944;DHT22;27636;52.610;13.244;2024-02-26T03:53:50;-0.80;99.90
41944;DHT22;27636;52.610;13.244;2024-02-26T03:58:54;-0.80;99.90
41944;DHT22;27636;52.610;13.244;2024-02-26T04:03:58;-0.80;99.90
41944;DHT22;27636;52.610;13.244;2024-02-26T04:09:03;-0.80;99.90
41944;DHT22;27636;52.610;13.244;2024-02-26T04:14:08;-0.80;99.90
41944;DHT22;27636;52.610;13.244;2024-02-26T04:19:12;-0.70;99.90
41944;DHT22;27636;52.610;13.244;2024-02-26T04:24:17;-0.70;99.90
41944;DHT22;27636;52.610;13.244;2024-02-26T04:29:21;-0.70;99.90
41944;DHT22;27636;52.610;13.244;2024-02-26T04:34:25;-0.70;99.90
41944;DHT22;27636;52.610;13.244;2024-02-26T04:39:30;-0.60;99.90
41944;DHT22;27636;52.610;13.244;2024-02-26T04:44:34;-0.50;99.90
41944;DHT22;27636;52.610;13.244;2024-02-26T04:49:38;-0.60;99.90
41944;DHT22;27636;52.610;13.244;2024-02-26T04:54:43;-0.50;99.90
41944;DHT22;27636;52.610;13.244;2024-02-26T04:59:47;-0.50;99.90
41944;DHT22;27636;52.610;13.244;2024-02-26T05:04:50;-0.50;99.90
41944;DHT22;27636;52.610;13.244;2024-02-26T05:09:56;-0.60;99.90
41944;DHT22;27636;52.610;13.244;2024-02-26T05:15:00;-0.50;99.90
41944;DHT22;27636;52.610;13.244;2024-02-26T05:20:05;-0.60;99.90
41944;DHT22;27636;52.610;13.244;2024-02-26T05:25:14;-0.70;99.90
41944;DHT22;27636;52.610;13.244;2024-02-26T05:30:18;-0.60;99.90
41944;DHT22;27636;52.610;13.244;2024-02-26T05:35:22;-0.60;99.90
41944;DHT22;27636;52.610;13.244;2024-02-26T05:40:27;-0.70;99.90
41944;DHT22;27636;52.610;13.244;2024-02-26T05:45:31;-0.70;99.90
41944;DHT22;27636;52.610;13.244;2024-02-26T05:50:36;-0.80;99.90
41944;DHT22;27636;52.610;13.244;2024-02-26T05:55:41;-0.70;99.90
41944;DHT22;27636;52.610;13.244;2024-02-26T06:00:47;-0.70;99.90
41944;DHT22;27636;52.610;13.244;2024-02-26T06:05:50;-0.70;99.90
41944;DHT22;27636;52.610;13.244;2024-02-26T06:10:56;-0.70;99.90
41944;DHT22;27636;52.610;13.244;2024-02-26T06:16:00;-0.60;99.90
41944;DHT22;27636;52.610;13.244;2024-02-26T06:21:04;-0.50;99.90
41944;DHT22;27636;52.610;13.244;2024-02-26T06:26:09;-0.50;99.90
41944;DHT22;27636;52.610;13.244;2024-02-26T06:31:14;-0.30;99.90
41944;DHT22;27636;52.610;13.244;2024-02-26T06:36:18;-0.10;99.90
41944;DHT22;27636;52.610;13.244;2024-02-26T06:41:23;0.20;99.90
41944;DHT22;27636;52.610;13.244;2024-02-26T06:46:31;0.40;99.90
41944;DHT22;27636;52.610;13.244;2024-02-26T06:51:35;0.60;99.90
41944;DHT22;27636;52.610;13.244;2024-02-26T06:56:40;0.80;99.90
41944;DHT22;27636;52.610;13.244;2024-02-26T07:01:44;1.00;99.90
41944;DHT22;27636;52.610;13.244;2024-02-26T07:06:48;1.20;99.90
41944;DHT22;27636;52.610;13.244;2024-02-26T07:11:54;1.50;99.90
41944;DHT22;27636;52.610;13.244;2024-02-26T07:17:00;1.50;99.90
41944;DHT22;27636;52.610;13.244;2024-02-26T07:22:04;1.60;99.90
41944;DHT22;27636;52.610;13.244;2024-02-26T07:27:09;1.70;99.90
41944;DHT22;27636;52.610;13.244;2024-02-26T07:32:13;1.80;99.90
41944;DHT22;27636;52.610;13.244;2024-02-26T07:37:17;2.00;99.90
41944;DHT22;27636;52.610;13.244;2024-02-26T07:42:22;2.20;99.90
41944;DHT22;27636;52.610;13.244;2024-02-26T07:47:26;2.70;99.90
41944;DHT22;27636;52.610;13.244;2024-02-26T07:52:30;4.20;99.90
41944;DHT22;27636;52.610;13.244;2024-02-26T07:57:35;5.30;99.90
41944;DHT22;27636;52.610;13.244;2024-02-26T08:02:39;6.30;99.90
41944;DHT22;27636;52.610;13.244;2024-02-26T08:07:43;6.50;99.90
41944;DHT22;27636;52.610;13.244;2024-02-26T08:12:48;6.30;99.90
41944;DHT22;27636;52.610;13.244;2024-02-26T08:17:52;6.40;99.90
41944;DHT22;27636;52.610;13.244;2024-02-26T08:22:57;6.70;99.90
41944;DHT22;27636;52.610;13.244;2024-02-26T08:28:03;6.50;99.90
41944;DHT22;27636;52.610;13.244;2024-02-26T08:33:06;6.60;99.90
41944;DHT22;27636;52.610;13.244;2024-02-26T08:38:10;7.20;99.90
41944;DHT22;27636;52.610;13.244;2024-02-26T08:43:15;7.70;99.90
41944;DHT22;27636;52.610;13.244;2024-02-26T08:48:20;7.60;99.90
41944;DHT22;27636;52.610;13.244;2024-02-26T08:53:24;8.20;99.90
41944;DHT22;27636;52.610;13.244;2024-02-26T08:58:41;8.10;99.90
41944;DHT22;27636;52.610;13.244;2024-02-26T09:03:45;9.40;99.90
41944;DHT22;27636;52.610;13.244;2024-02-26T09:08:49;9.20;99.90
41944;DHT22;27636;52.610;13.244;2024-02-26T09:13:54;9.60;99.90
41944;DHT22;27636;52.610;13.244;2024-02-26T09:18:58;9.90;99.90
41944;DHT22;27636;52.610;13.244;2024-02-26T09:24:02;9.60;99.90
41944;DHT22;27636;52.610;13.244;2024-02-26T09:29:08;11.20;99.90
41944;DHT22;27636;52.610;13.244;2024-02-26T09:34:12;12.10;99.90
41944;DHT22;27636;52.610;13.244;2024-02-26T09:39:16;13.20;99.00
41944;DHT22;27636;52.610;13.244;2024-02-26T09:44:27;13.00;97.00
41944;DHT22;27636;52.610;13.244;2024-02-26T09:49:35;12.80;96.20
41944;DHT22;27636;52.610;13.244;2024-02-26T09:54:39;13.20;95.10
41944;DHT22;27636;52.610;13.244;2024-02-26T09:59:47;13.40;94.90
41944;DHT22;27636;52.610;13.244;2024-02-26T10:04:54;12.30;95.70
41944;DHT22;27636;52.610;13.244;2024-02-26T10:10:00;11.80;97.50
41944;DHT22;27636;52.610;13.244;2024-02-26T10:15:07;11.20;99.00
41944;DHT22;27636;52.610;13.244;2024-02-26T10:20:15;11.00;99.40
41944;DHT22;27636;52.610;13.244;2024-02-26T10:25:20;10.80;99.90
41944;DHT22;27636;52.610;13.244;2024-02-26T10:30:25;10.70;99.90
41944;DHT22;27636;52.610;13.244;2024-02-26T10:35:30;10.70;99.90
41944;DHT22;27636;52.610;13.244;2024-02-26T10:40:35;11.00;99.90
41944;DHT22;27636;52.610;13.244;2024-02-26T10:45:42;11.10;99.90
41944;DHT22;27636;52.610;13.244;2024-02-26T10:50:47;11.30;99.90
41944;DHT22;27636;52.610;13.244;2024-02-26T10:55:55;11.20;99.90
41944;DHT22;27636;52.610;13.244;2024-02-26T11:01:03;11.20;99.90
41944;DHT22;27636;52.610;13.244;2024-02-26T11:06:08;11.60;99.90
41944;DHT22;27636;52.610;13.244;2024-02-26T11:11:12;11.70;99.50
41944;DHT22;27636;52.610;13.244;2024-02-26T11:16:21;11.50;99.20
41944;DHT22;27636;52.610;13.244;2024-02-26T11:21:25;11.60;98.90
41944;DHT22;27636;52.610;13.244;2024-02-26T11:26:46;11.50;98.00
41944;DHT22;27636;52.610;13.244;2024-02-26T11:31:53;11.60;97.50
41944;DHT22;27636;52.610;13.244;2024-02-26T11:36:57;11.60;96.30
41944;DHT22;27636;52.610;13.244;2024-02-26T11:42:14;11.60;96.80
41944;DHT22;27636;52.610;13.244;2024-02-26T11:47:21;11.90;96.50
41944;DHT22;27636;52.610;13.244;2024-02-26T11:52:25;12.00;96.10
41944;DHT22;27636;52.610;13.244;2024-02-26T11:57:30;12.10;95.90
41944;DHT22;27636;52.610;13.244;2024-02-26T12:02:44;12.20;95.10
41944;DHT22;27636;52.610;13.244;2024-02-26T12:07:53;12.20;95.80
41944;DHT22;27636;52.610;13.244;2024-02-26T12:13:02;12.40;94.00
41944;DHT22;27636;52.610;13.244;2024-02-26T12:18:09;12.50;94.00
41944;DHT22;27636;52.610;13.244;2024-02-26T12:23:16;12.70;93.50
41944;DHT22;27636;52.610;13.244;2024-02-26T12:28:21;12.80;91.00
41944;DHT22;27636;52.610;13.244;2024-02-26T12:33:26;13.00;92.20
41944;DHT22;27636;52.610;13.244;2024-02-26T12:38:31;13.90;90.80
41944;DHT22;27636;52.610;13.244;2024-02-26T12:43:36;13.70;88.80
41944;DHT22;27636;52.610;13.244;2024-02-26T12:48:43;13.40;89.40
41944;DHT22;27636;52.610;13.244;2024-02-26T12:53:47;13.20;87.10
41944;DHT22;27636;52.610;13.244;2024-02-26T12:58:53;13.10;87.50
41944;DHT22;27636;52.610;13.244;2024-02-26T13:03:59;12.90;88.00
41944;DHT22;27636;52.610;13.244;2024-02-26T13:09:05;12.90;88.50
41944;DHT22;27636;52.610;13.244;2024-02-26T13:14:19;12.70;86.00
41944;DHT22;27636;52.610;13.244;2024-02-26T13:19:25;12.70;87.60
41944;DHT22;27636;52.610;13.244;2024-02-26T13:24:32;12.60;84.70
41944;DHT22;27636;52.610;13.244;2024-02-26T13:29:35;12.60;86.80
41944;DHT22;27636;52.610;13.244;2024-02-26T13:34:41;12.70;88.90
41944;DHT22;27636;52.610;13.244;2024-02-26T13:39:44;12.50;90.10
41944;DHT22;27636;52.610;13.244;2024-02-26T13:44:48;12.40;89.10
41944;DHT22;27636;52.610;13.244;2024-02-26T13:49:53;12.40;91.00
41944;DHT22;27636;52.610;13.244;2024-02-26T13:54:57;12.50;88.80
41944;DHT22;27636;52.610;13.244;2024-02-26T14:00:03;12.50;87.70
41944;DHT22;27636;52.610;13.244;2024-02-26T14:05:15;12.30;88.90
41944;DHT22;27636;52.610;13.244;2024-02-26T14:10:19;12.10;87.50
41944;DHT22;27636;52.610;13.244;2024-02-26T14:15:23;12.10;89.10
41944;DHT22;27636;52.610;13.244;2024-02-26T14:20:29;11.90;86.70
41944;DHT22;27636;52.610;13.244;2024-02-26T14:25:33;11.80;87.00
41944;DHT22;27636;52.610;13.244;2024-02-26T14:30:37;11.70;87.70
41944;DHT22;27636;52.610;13.244;2024-02-26T14:35:42;11.70;87.40
41944;DHT22;27636;52.610;13.244;2024-02-26T14:40:46;11.70;87.70
41944;DHT22;27636;52.610;13.244;2024-02-26T14:45:50;11.60;88.00
41944;DHT22;27636;52.610;13.244;2024-02-26T14:50:55;11.50;90.10
41944;DHT22;27636;52.610;13.244;2024-02-26T14:55:59;11.30;91.20
41944;DHT22;27636;52.610;13.244;2024-02-26T15:01:03;11.50;91.50
41944;DHT22;27636;52.610;13.244;2024-02-26T15:06:09;11.40;91.10
41944;DHT22;27636;52.610;13.244;2024-02-26T15:11:13;11.40;91.10
41944;DHT22;27636;52.610;13.244;2024-02-26T15:16:17;11.20;91.80
41944;DHT22;27636;52.610;13.244;2024-02-26T15:21:23;11.10;92.00
41944;DHT22;27636;52.610;13.244;2024-02-26T15:26:27;11.20;92.00
41944;DHT22;27636;52.610;13.244;2024-02-26T15:31:31;11.10;91.90
41944;DHT22;27636;52.610;13.244;2024-02-26T15:36:36;11.20;92.00
41944;DHT22;27636;52.610;13.244;2024-02-26T15:41:40;11.20;91.90
41944;DHT22;27636;52.610;13.244;2024-02-26T15:46:44;11.10;92.40
41944;DHT22;27636;52.610;13.244;2024-02-26T15:51:49;10.80;93.70
41944;DHT22;27636;52.610;13.244;2024-02-26T15:56:53;10.70;94.60
41944;DHT22;27636;52.610;13.244;2024-02-26T16:01:56;10.70;94.90
41944;DHT22;27636;52.610;13.244;2024-02-26T16:07:04;10.40;96.00
41944;DHT22;27636;52.610;13.244;2024-02-26T16:12:19;10.40;96.10
41944;DHT22;27636;52.610;13.244;2024-02-26T16:17:26;10.30;96.90
41944;DHT22;27636;52.610;13.244;2024-02-26T16:22:33;10.20;97.70
41944;DHT22;27636;52.610;13.244;2024-02-26T16:27:38;9.90;98.60
41944;DHT22;27636;52.610;13.244;2024-02-26T16:32:44;9.80;99.20
41944;DHT22;27636;52.610;13.244;2024-02-26T16:37:49;9.50;99.90
41944;DHT22;27636;52.610;13.244;2024-02-26T16:42:53;9.40;99.90
41944;DHT22;27636;52.610;13.244;2024-02-26T16:47:56;9.50;99.90
41944;DHT22;27636;52.610;13.244;2024-02-26T16:53:02;9.40;99.90
41944;DHT22;27636;52.610;13.244;2024-02-26T16:58:06;9.30;99.90
41944;DHT22;27636;52.610;13.244;2024-02-26T17:03:10;9.20;99.90
41944;DHT22;27636;52.610;13.244;2024-02-26T17:08:16;9.10;99.90
41944;DHT22;27636;52.610;13.244;2024-02-26T17:13:20;9.10;99.90
41944;DHT22;27636;52.610;13.244;2024-02-26T17:18:26;9.00;99.90
41944;DHT22;27636;52.610;13.244;2024-02-26T17:23:32;9.00;99.90
41944;DHT22;27636;52.610;13.244;2024-02-26T17:28:37;9.00;99.90
41944;DHT22;27636;52.610;13.244;2024-02-26T17:33:46;8.80;99.90
41944;DHT22;27636;52.610;13.244;2024-02-26T17:38:52;8.70;99.90
41944;DHT22;27636;52.610;13.244;2024-02-26T17:43:55;8.70;99.90
41944;DHT22;27636;52.610;13.244;2024-02-26T17:48:59;8.50;99.90
41944;DHT22;27636;52.610;13.244;2024-02-26T17:54:05;8.40;99.90
41944;DHT22;27636;52.610;13.244;2024-02-26T17:59:09;8.40;99.90
41944;DHT22;27636;52.610;13.244;2024-02-26T18:04:13;8.50;99.90
41944;DHT22;27636;52.610;13.244;2024-02-26T18:09:19;8.40;99.90
41944;DHT22;27636;52.610;13.244;2024-02-26T18:14:23;8.40;99.90
41944;DHT22;27636;52.610;13.244;2024-02-26T18:19:26;8.40;99.90
41944;DHT22;27636;52.610;13.244;2024-02-26T18:24:32;8.30;99.90
41944;DHT22;27636;52.610;13.244;2024-02-26T18:29:36;8.20;99.90
41944;DHT22;27636;52.610;13.244;2024-02-26T18:34:40;8.00;99.90
41944;DHT22;27636;52.610;13.244;2024-02-26T18:39:46;8.10;99.90
41944;DHT22;27636;52.610;13.244;2024-02-26T18:44:50;8.10;99.90
41944;DHT22;27636;52.610;13.244;2024-02-26T18:49:54;8.00;99.90
41944;DHT22;27636;52.610;13.244;2024-02-26T18:54:59;8.00;99.90
41944;DHT22;27636;52.610;13.244;2024-02-26T19:00:05;8.00;99.90
41944;DHT22;27636;52.610;13.244;2024-02-26T19:05:09;7.80;99.90
41944;DHT22;27636;52.610;13.244;2024-02-26T19:10:14;7.70;99.90
41944;DHT22;27636;52.610;13.244;2024-02-26T19:15:17;7.80;99.90
41944;DHT22;27636;52.610;13.244;2024-02-26T19:20:23;7.50;99.90
41944;DHT22;27636;52.610;13.244;2024-02-26T19:25:29;7.40;99.90
41944;DHT22;27636;52.610;13.244;2024-02-26T19:30:32;7.40;99.90
41944;DHT22;27636;52.610;13.244;2024-02-26T19:35:37;7.50;99.90
41944;DHT22;27636;52.610;13.244;2024-02-26T19:40:43;7.50;99.90
41944;DHT22;27636;52.610;13.244;2024-02-26T19:45:47;7.40;99.90
41944;DHT22;27636;52.610;13.244;2024-02-26T19:51:16;7.20;99.90
41944;DHT22;27636;52.610;13.244;2024-02-26T19:56:22;7.30;99.90
41944;DHT22;27636;52.610;13.244;2024-02-26T20:01:27;7.20;99.90
41944;DHT22;27636;52.610;13.244;2024-02-26T20:06:31;7.10;99.90
41944;DHT22;27636;52.610;13.244;2024-02-26T20:11:38;7.10;99.90
41944;DHT22;27636;52.610;13.244;2024-02-26T20:16:45;6.80;99.90
41944;DHT22;27636;52.610;13.244;2024-02-26T20:21:48;6.50;99.90
41944;DHT22;27636;52.610;13.244;2024-02-26T20:26:54;6.30;99.90
41944;DHT22;27636;52.610;13.244;2024-02-26T20:31:57;6.10;99.90
41944;DHT22;27636;52.610;13.244;2024-02-26T20:37:02;6.00;99.90
41944;DHT22;27636;52.610;13.244;2024-02-26T20:42:07;5.60;99.90
41944;DHT22;27636;52.610;13.244;2024-02-26T20:47:11;6.00;99.90
41944;DHT22;27636;52.610;13.244;2024-02-26T20:52:15;6.10;99.90
41944;DHT22;27636;52.610;13.244;2024-02-26T20:57:21;6.20;99.90
41944;DHT22;27636;52.610;13.244;2024-02-26T21:02:24;6.30;99.90
41944;DHT22;27636;52.610;13.244;2024-02-26T21:07:36;6.50;99.90
41944;DHT22;27636;52.610;13.244;2024-02-26T21:12:41;6.30;99.90
41944;DHT22;27636;52.610;13.244;2024-02-26T21:17:51;6.20;99.90
41944;DHT22;27636;52.610;13.244;2024-02-26T21:22:55;5.90;99.90
41944;DHT22;27636;52.610;13.244;2024-02-26T21:28:01;5.90;99.90
41944;DHT22;27636;52.610;13.244;2024-02-26T21:33:05;5.70;99.90
41944;DHT22;27636;52.610;13.244;2024-02-26T21:38:10;5.50;99.90
41944;DHT22;27636;52.610;13.244;2024-02-26T21:43:15;5.40;99.90
41944;DHT22;27636;52.610;13.244;2024-02-26T21:48:19;5.60;99.90
41944;DHT22;27636;52.610;13.244;2024-02-26T21:53:22;5.60;99.90
41944;DHT22;27636;52.610;13.244;2024-02-26T21:58:28;5.80;99.90
41944;DHT22;27636;52.610;13.244;2024-02-26T22:03:32;5.90;99.90
41944;DHT22;27636;52.610;13.244;2024-02-26T22:08:36;6.10;99.90
41944;DHT22;27636;52.610;13.244;2024-02-26T22:13:41;6.10;99.90
41944;DHT22;27636;52.610;13.244;2024-02-26T22:18:45;6.20;99.90
41944;DHT22;27636;52.610;13.244;2024-02-26T22:23:49;5.90;99.90
41944;DHT22;27636;52.610;13.244;2024-02-26T22:28:54;5.90;99.90
41944;DHT22;27636;52.610;13.244;2024-02-26T22:33:58;6.00;99.90
41944;DHT22;27636;52.610;13.244;2024-02-26T22:39:03;6.10;99.90
41944;DHT22;27636;52.610;13.244;2024-02-26T22:44:09;5.80;99.90
41944;DHT22;27636;52.610;13.244;2024-02-26T22:49:12;5.60;99.90
41944;DHT22;27636;52.610;13.244;2024-02-26T22:54:41;5.50;99.90
41944;DHT22;27636;52.610;13.244;2024-02-26T22:59:46;5.40;99.90
41944;DHT22;27636;52.610;13.244;2024-02-26T23:04:50;5.20;99.90
41944;DHT22;27636;52.610;13.244;2024-02-26T23:09:54;4.90;99.90
41944;DHT22;27636;52.610;13.244;2024-02-26T23:14:59;4.60;99.90
41944;DHT22;27636;52.610;13.244;2024-02-26T23:20:03;4.60;99.90
41944;DHT22;27636;52.610;13.244;2024-02-26T23:25:13;4.40;99.90
41944;DHT22;27636;52.610;13.244;2024-02-26T23:30:18;4.20;99.90
41944;DHT22;27636;52.610;13.244;2024-02-26T23:35:23;4.20;99.90
41944;DHT22;27636;52.610;13.244;2024-02-26T23:40:27;4.00;99.90
41944;DHT22;27636;52.610;13.244;2024-02-26T23:45:35;3.90;99.90
41944;DHT22;27636;52.610;13.244;2024-02-26T23:50:38;3.80;99.90
41944;DHT22;27636;52.610;13.244;2024-02-26T23:55:42;3.80;99.90
